sensor_id;sensor_type;location;lat;lon;timestamp;pressure;altitude;pressure_sealevel;temperature;humidity
8320;BME280;4197;42.130;24.746;2022-08-21T00:01:07;98814.22;;;19.29;100.00
8320;BME280;4197;42.130;24.746;2022-08-21T00:03:37;98833.88;;;19.28;100.00
8320;BME280;4197;42.130;24.746;2022-08-21T00:06:05;98838.50;;;19.31;100.00
8320;BME280;4197;42.130;24.746;2022-08-21T00:08:39;98847.72;;;19.41;100.00
8320;BME280;4197;42.130;24.746;2022-08-21T00:11:08;98831.50;;;19.46;100.00
8320;BME280;4197;42.130;24.746;2022-08-21T00:13:38;98824.03;;;19.47;100.00
8320;BME280;4197;42.130;24.746;2022-08-21T00:16:06;98830.63;;;19.49;100.00
8320;BME280;4197;42.130;24.746;2022-08-21T00:18:35;98818.09;;;19.48;100.00
8320;BME280;4197;42.130;24.746;2022-08-21T00:21:03;98807.16;;;19.45;100.00
8320;BME280;4197;42.130;24.746;2022-08-21T00:23:33;98820.91;;;19.45;100.00
8320;BME280;4197;42.130;24.746;2022-08-21T00:26:02;98809.75;;;19.52;100.00
8320;BME280;4197;42.130;24.746;2022-08-21T00:28:31;98802.03;;;19.47;100.00
8320;BME280;4197;42.130;24.746;2022-08-21T00:31:01;98806.81;;;19.43;100.00
8320;BME280;4197;42.130;24.746;2022-08-21T00:33:31;98799.88;;;19.38;100.00
8320;BME280;4197;42.130;24.746;2022-08-21T00:36:00;98805.38;;;19.38;100.00
8320;BME280;4197;42.130;24.746;2022-08-21T00:38:28;98812.75;;;19.41;100.00
8320;BME280;4197;42.130;24.746;2022-08-21T00:40:59;98806.06;;;19.42;100.00
8320;BME280;4197;42.130;24.746;2022-08-21T00:43:47;98784.81;;;19.43;100.00
8320;BME280;4197;42.130;24.746;2022-08-21T00:46:17;98777.53;;;19.36;100.00
8320;BME280;4197;42.130;24.746;2022-08-21T00:48:46;98780.63;;;19.22;100.00
8320;BME280;4197;42.130;24.746;2022-08-21T00:51:21;98782.09;;;19.26;100.00
8320;BME280;4197;42.130;24.746;2022-08-21T00:53:54;98794.03;;;19.36;100.00
8320;BME280;4197;42.130;24.746;2022-08-21T00:56:25;98794.38;;;19.38;100.00
8320;BME280;4197;42.130;24.746;2022-08-21T00:58:55;98796.78;;;19.36;100.00
8320;BME280;4197;42.130;24.746;2022-08-21T01:01:25;98793.94;;;19.39;100.00
8320;BME280;4197;42.130;24.746;2022-08-21T01:03:54;98790.00;;;19.41;100.00
8320;BME280;4197;42.130;24.746;2022-08-21T01:06:22;98793.06;;;19.43;100.00
8320;BME280;4197;42.130;24.746;2022-08-21T01:08:50;98780.97;;;19.40;100.00
8320;BME280;4197;42.130;24.746;2022-08-21T01:11:18;98781.75;;;19.41;100.00
8320;BME280;4197;42.130;24.746;2022-08-21T01:13:48;98772.38;;;19.38;100.00
8320;BME280;4197;42.130;24.746;2022-08-21T01:16:18;98763.03;;;19.35;100.00
8320;BME280;4197;42.130;24.746;2022-08-21T01:18:50;98766.19;;;19.34;100.00
8320;BME280;4197;42.130;24.746;2022-08-21T01:21:22;98762.66;;;19.33;100.00
8320;BME280;4197;42.130;24.746;2022-08-21T01:23:55;98757.94;;;19.34;100.00
8320;BME280;4197;42.130;24.746;2022-08-21T01:26:27;98761.66;;;19.44;100.00
8320;BME280;4197;42.130;24.746;2022-08-21T01:29:07;98763.69;;;19.56;100.00
8320;BME280;4197;42.130;24.746;2022-08-21T01:31:38;98748.06;;;19.69;100.00
8320;BME280;4197;42.130;24.746;2022-08-21T01:34:07;98742.28;;;19.80;100.00
8320;BME280;4197;42.130;24.746;2022-08-21T01:36:38;98739.88;;;19.82;100.00
8320;BME280;4197;42.130;24.746;2022-08-21T01:39:06;98751.06;;;19.75;100.00
8320;BME280;4197;42.130;24.746;2022-08-21T01:41:34;98754.19;;;19.90;100.00
8320;BME280;4197;42.130;24.746;2022-08-21T01:44:03;98753.91;;;20.00;100.00
8320;BME280;4197;42.130;24.746;2022-08-21T01:46:31;98754.78;;;19.97;100.00
8320;BME280;4197;42.130;24.746;2022-08-21T01:49:00;98760.50;;;19.90;100.00
8320;BME280;4197;42.130;24.746;2022-08-21T01:51:28;98760.16;;;19.88;100.00
8320;BME280;4197;42.130;24.746;2022-08-21T01:53:58;98772.13;;;19.81;100.00
8320;BME280;4197;42.130;24.746;2022-08-21T01:56:26;98786.03;;;19.91;100.00
8320;BME280;4197;42.130;24.746;2022-08-21T01:58:54;98805.38;;;19.87;100.00
8320;BME280;4197;42.130;24.746;2022-08-21T02:01:22;98819.56;;;19.86;100.00
8320;BME280;4197;42.130;24.746;2022-08-21T02:03:51;98823.09;;;19.86;100.00
8320;BME280;4197;42.130;24.746;2022-08-21T02:06:19;98822.47;;;19.95;100.00
8320;BME280;4197;42.130;24.746;2022-08-21T02:08:47;98828.84;;;19.92;100.00
8320;BME280;4197;42.130;24.746;2022-08-21T02:11:19;98815.34;;;19.81;100.00
8320;BME280;4197;42.130;24.746;2022-08-21T02:13:47;98812.84;;;19.87;100.00
8320;BME280;4197;42.130;24.746;2022-08-21T02:16:15;98813.97;;;19.89;100.00
8320;BME280;4197;42.130;24.746;2022-08-21T02:18:45;98816.56;;;19.80;100.00
8320;BME280;4197;42.130;24.746;2022-08-21T02:21:13;98816.66;;;19.76;100.00
8320;BME280;4197;42.130;24.746;2022-08-21T02:23:42;98822.06;;;19.80;100.00
8320;BME280;4197;42.130;24.746;2022-08-21T02:26:11;98828.78;;;19.79;100.00
8320;BME280;4197;42.130;24.746;2022-08-21T02:28:41;98829.56;;;19.79;100.00
8320;BME280;4197;42.130;24.746;2022-08-21T02:31:09;98838.16;;;19.81;100.00
8320;BME280;4197;42.130;24.746;2022-08-21T02:33:38;98846.72;;;19.83;100.00
8320;BME280;4197;42.130;24.746;2022-08-21T02:36:08;98848.03;;;19.79;100.00
8320;BME280;4197;42.130;24.746;2022-08-21T02:38:39;98852.31;;;19.80;100.00
8320;BME280;4197;42.130;24.746;2022-08-21T02:41:11;98843.38;;;19.76;100.00
8320;BME280;4197;42.130;24.746;2022-08-21T02:43:41;98856.53;;;19.68;100.00
8320;BME280;4197;42.130;24.746;2022-08-21T02:46:16;98852.81;;;19.58;100.00
8320;BME280;4197;42.130;24.746;2022-08-21T02:48:45;98852.03;;;19.58;100.00
8320;BME280;4197;42.130;24.746;2022-08-21T02:51:16;98849.28;;;19.58;100.00
8320;BME280;4197;42.130;24.746;2022-08-21T02:53:46;98834.75;;;19.57;100.00
8320;BME280;4197;42.130;24.746;2022-08-21T02:56:18;98844.28;;;19.53;100.00
8320;BME280;4197;42.130;24.746;2022-08-21T02:58:50;98838.53;;;19.47;100.00
8320;BME280;4197;42.130;24.746;2022-08-21T03:01:20;98841.72;;;19.46;100.00
8320;BME280;4197;42.130;24.746;2022-08-21T03:03:48;98841.47;;;19.40;100.00
8320;BME280;4197;42.130;24.746;2022-08-21T03:06:20;98845.41;;;19.39;100.00
8320;BME280;4197;42.130;24.746;2022-08-21T03:08:48;98843.09;;;19.37;100.00
8320;BME280;4197;42.130;24.746;2022-08-21T03:11:17;98849.88;;;19.33;100.00
8320;BME280;4197;42.130;24.746;2022-08-21T03:13:45;98855.38;;;19.33;100.00
8320;BME280;4197;42.130;24.746;2022-08-21T03:16:15;98861.13;;;19.38;100.00
8320;BME280;4197;42.130;24.746;2022-08-21T03:18:43;98859.59;;;19.37;100.00
8320;BME280;4197;42.130;24.746;2022-08-21T03:21:11;98855.09;;;19.27;100.00
8320;BME280;4197;42.130;24.746;2022-08-21T03:23:39;98853.56;;;19.26;100.00
8320;BME280;4197;42.130;24.746;2022-08-21T03:26:09;98848.63;;;19.17;100.00
8320;BME280;4197;42.130;24.746;2022-08-21T03:28:38;98860.06;;;19.16;100.00
8320;BME280;4197;42.130;24.746;2022-08-21T03:31:06;98863.94;;;19.19;100.00
8320;BME280;4197;42.130;24.746;2022-08-21T03:33:36;98859.63;;;19.17;100.00
8320;BME280;4197;42.130;24.746;2022-08-21T03:36:07;98859.88;;;19.23;100.00
8320;BME280;4197;42.130;24.746;2022-08-21T03:38:37;98852.75;;;19.26;100.00
8320;BME280;4197;42.130;24.746;2022-08-21T03:41:06;98852.88;;;19.38;100.00
8320;BME280;4197;42.130;24.746;2022-08-21T03:43:35;98851.75;;;19.36;100.00
8320;BME280;4197;42.130;24.746;2022-08-21T03:46:04;98855.97;;;19.24;100.00
8320;BME280;4197;42.130;24.746;2022-08-21T03:48:36;98860.44;;;19.34;100.00
8320;BME280;4197;42.130;24.746;2022-08-21T03:51:04;98860.69;;;19.24;100.00
8320;BME280;4197;42.130;24.746;2022-08-21T03:53:33;98872.19;;;19.19;100.00
8320;BME280;4197;42.130;24.746;2022-08-21T03:56:02;98872.09;;;19.22;100.00
8320;BME280;4197;42.130;24.746;2022-08-21T03:58:31;98874.78;;;19.42;100.00
8320;BME280;4197;42.130;24.746;2022-08-21T04:01:00;98874.78;;;19.42;100.00
8320;BME280;4197;42.130;24.746;2022-08-21T04:03:28;98873.59;;;19.43;100.00
8320;BME280;4197;42.130;24.746;2022-08-21T04:05:58;98870.41;;;19.45;100.00
8320;BME280;4197;42.130;24.746;2022-08-21T04:08:26;98869.72;;;19.41;100.00
8320;BME280;4197;42.130;24.746;2022-08-21T04:10:56;98876.09;;;19.54;100.00
8320;BME280;4197;42.130;24.746;2022-08-21T04:13:26;98877.66;;;19.55;100.00
8320;BME280;4197;42.130;24.746;2022-08-21T04:15:56;98878.50;;;19.52;100.00
8320;BME280;4197;42.130;24.746;2022-08-21T04:18:25;98869.56;;;19.48;100.00
8320;BME280;4197;42.130;24.746;2022-08-21T04:20:53;98872.16;;;19.55;100.00
8320;BME280;4197;42.130;24.746;2022-08-21T04:23:25;98869.31;;;19.58;100.00
8320;BME280;4197;42.130;24.746;2022-08-21T04:25:55;98879.69;;;19.51;100.00
8320;BME280;4197;42.130;24.746;2022-08-21T04:28:25;98880.50;;;19.51;100.00
8320;BME280;4197;42.130;24.746;2022-08-21T04:30:56;98879.09;;;19.43;100.00
8320;BME280;4197;42.130;24.746;2022-08-21T04:33:25;98877.03;;;19.47;100.00
8320;BME280;4197;42.130;24.746;2022-08-21T04:35:53;98864.56;;;19.43;100.00
8320;BME280;4197;42.130;24.746;2022-08-21T04:38:21;98851.75;;;19.36;100.00
8320;BME280;4197;42.130;24.746;2022-08-21T04:40:51;98861.13;;;19.38;100.00
8320;BME280;4197;42.130;24.746;2022-08-21T04:43:20;98864.03;;;19.31;100.00
8320;BME280;4197;42.130;24.746;2022-08-21T04:45:51;98857.84;;;19.27;100.00
8320;BME280;4197;42.130;24.746;2022-08-21T04:48:21;98847.28;;;19.26;100.00
8320;BME280;4197;42.130;24.746;2022-08-21T04:50:54;98846.72;;;19.14;100.00
8320;BME280;4197;42.130;24.746;2022-08-21T04:53:31;98849.41;;;19.18;100.00
8320;BME280;4197;42.130;24.746;2022-08-21T04:56:05;98842.63;;;19.23;100.00
8320;BME280;4197;42.130;24.746;2022-08-21T04:58:37;98833.34;;;19.16;100.00
8320;BME280;4197;42.130;24.746;2022-08-21T05:01:11;98837.31;;;19.15;100.00
8320;BME280;4197;42.130;24.746;2022-08-21T05:03:41;98834.81;;;19.21;100.00
8320;BME280;4197;42.130;24.746;2022-08-21T05:06:12;98843.16;;;19.34;100.00
8320;BME280;4197;42.130;24.746;2022-08-21T05:08:41;98847.34;;;19.22;100.00
8320;BME280;4197;42.130;24.746;2022-08-21T05:11:11;98840.00;;;19.35;100.00
8320;BME280;4197;42.130;24.746;2022-08-21T05:13:40;98841.63;;;19.33;100.00
8320;BME280;4197;42.130;24.746;2022-08-21T05:16:08;98837.16;;;19.39;100.00
8320;BME280;4197;42.130;24.746;2022-08-21T05:18:37;98829.16;;;19.45;100.00
8320;BME280;4197;42.130;24.746;2022-08-21T05:21:05;98830.63;;;19.49;100.00
8320;BME280;4197;42.130;24.746;2022-08-21T05:23:33;98821.69;;;19.45;100.00
8320;BME280;4197;42.130;24.746;2022-08-21T05:26:01;98823.84;;;19.37;100.00
8320;BME280;4197;42.130;24.746;2022-08-21T05:28:33;98825.03;;;19.53;100.00
8320;BME280;4197;42.130;24.746;2022-08-21T05:31:01;98823.41;;;19.55;100.00
8320;BME280;4197;42.130;24.746;2022-08-21T05:33:29;98828.06;;;19.58;100.00
8320;BME280;4197;42.130;24.746;2022-08-21T05:36:01;98819.53;;;19.53;100.00
8320;BME280;4197;42.130;24.746;2022-08-21T05:38:29;98829.94;;;19.61;100.00
8320;BME280;4197;42.130;24.746;2022-08-21T05:40:57;98835.38;;;19.65;100.00
8320;BME280;4197;42.130;24.746;2022-08-21T05:43:26;98825.75;;;19.57;100.00
8320;BME280;4197;42.130;24.746;2022-08-21T05:45:55;98827.72;;;19.89;100.00
8320;BME280;4197;42.130;24.746;2022-08-21T05:48:24;98838.47;;;20.00;100.00
8320;BME280;4197;42.130;24.746;2022-08-21T05:50:52;98836.75;;;19.90;100.00
8320;BME280;4197;42.130;24.746;2022-08-21T05:53:22;98840.97;;;19.94;100.00
8320;BME280;4197;42.130;24.746;2022-08-21T05:55:52;98840.97;;;19.94;100.00
8320;BME280;4197;42.130;24.746;2022-08-21T05:58:21;98848.63;;;19.87;100.00
8320;BME280;4197;42.130;24.746;2022-08-21T06:00:51;98846.13;;;19.76;100.00
8320;BME280;4197;42.130;24.746;2022-08-21T06:03:24;98851.47;;;19.83;100.00
8320;BME280;4197;42.130;24.746;2022-08-21T06:05:53;98849.22;;;19.78;100.00
8320;BME280;4197;42.130;24.746;2022-08-21T06:08:22;98860.31;;;19.74;100.00
8320;BME280;4197;42.130;24.746;2022-08-21T06:10:52;98859.72;;;19.67;100.00
8320;BME280;4197;42.130;24.746;2022-08-21T06:13:21;98858.34;;;19.75;100.00
8320;BME280;4197;42.130;24.746;2022-08-21T06:15:50;98858.84;;;19.70;100.00
8320;BME280;4197;42.130;24.746;2022-08-21T06:18:29;98860.06;;;19.85;100.00
8320;BME280;4197;42.130;24.746;2022-08-21T06:20:57;98865.22;;;19.83;100.00
8320;BME280;4197;42.130;24.746;2022-08-21T06:23:26;98857.72;;;19.83;100.00
8320;BME280;4197;42.130;24.746;2022-08-21T06:26:00;98853.78;;;19.85;100.00
8320;BME280;4197;42.130;24.746;2022-08-21T06:28:28;98859.88;;;19.92;100.00
8320;BME280;4197;42.130;24.746;2022-08-21T06:30:57;98856.53;;;20.01;100.00
8320;BME280;4197;42.130;24.746;2022-08-21T06:33:25;98860.38;;;20.03;100.00
8320;BME280;4197;42.130;24.746;2022-08-21T06:35:59;98857.53;;;20.23;100.00
8320;BME280;4197;42.130;24.746;2022-08-21T06:38:27;98859.47;;;20.23;100.00
8320;BME280;4197;42.130;24.746;2022-08-21T06:40:57;98855.88;;;20.26;100.00
8320;BME280;4197;42.130;24.746;2022-08-21T06:43:26;98849.66;;;20.38;100.00
8320;BME280;4197;42.130;24.746;2022-08-21T06:46:05;98842.47;;;20.57;100.00
8320;BME280;4197;42.130;24.746;2022-08-21T06:48:33;98844.06;;;20.71;100.00
8320;BME280;4197;42.130;24.746;2022-08-21T06:51:04;98844.72;;;20.75;100.00
8320;BME280;4197;42.130;24.746;2022-08-21T06:53:32;98833.44;;;20.57;100.00
8320;BME280;4197;42.130;24.746;2022-08-21T06:56:01;98832.69;;;20.69;100.00
8320;BME280;4197;42.130;24.746;2022-08-21T06:58:29;98824.88;;;20.67;100.00
8320;BME280;4197;42.130;24.746;2022-08-21T07:00:58;98830.81;;;20.66;100.00
8320;BME280;4197;42.130;24.746;2022-08-21T07:03:29;98832.50;;;20.76;100.00
8320;BME280;4197;42.130;24.746;2022-08-21T07:05:57;98835.16;;;20.80;100.00
8320;BME280;4197;42.130;24.746;2022-08-21T07:08:27;98834.94;;;21.00;100.00
8320;BME280;4197;42.130;24.746;2022-08-21T07:10:57;98829.56;;;21.22;100.00
8320;BME280;4197;42.130;24.746;2022-08-21T07:13:25;98831.81;;;21.40;100.00
8320;BME280;4197;42.130;24.746;2022-08-21T07:15:53;98831.22;;;21.45;100.00
8320;BME280;4197;42.130;24.746;2022-08-21T07:18:28;98832.88;;;21.42;100.00
8320;BME280;4197;42.130;24.746;2022-08-21T07:20:57;98835.00;;;21.51;100.00
8320;BME280;4197;42.130;24.746;2022-08-21T07:23:29;98835.75;;;21.51;100.00
8320;BME280;4197;42.130;24.746;2022-08-21T07:25:58;98826.81;;;21.60;100.00
8320;BME280;4197;42.130;24.746;2022-08-21T07:28:27;98820.03;;;21.87;100.00
8320;BME280;4197;42.130;24.746;2022-08-21T07:30:57;98827.09;;;21.88;100.00
8320;BME280;4197;42.130;24.746;2022-08-21T07:33:26;98833.91;;;21.96;100.00
8320;BME280;4197;42.130;24.746;2022-08-21T07:35:55;98831.69;;;22.03;100.00
8320;BME280;4197;42.130;24.746;2022-08-21T07:38:25;98828.81;;;22.07;100.00
8320;BME280;4197;42.130;24.746;2022-08-21T07:40:56;98817.75;;;22.07;100.00
8320;BME280;4197;42.130;24.746;2022-08-21T07:43:25;98821.00;;;22.27;100.00
8320;BME280;4197;42.130;24.746;2022-08-21T07:45:54;98808.81;;;22.38;100.00
8320;BME280;4197;42.130;24.746;2022-08-21T07:48:24;98818.16;;;22.53;100.00
8320;BME280;4197;42.130;24.746;2022-08-21T07:50:52;98822.88;;;22.53;100.00
8320;BME280;4197;42.130;24.746;2022-08-21T07:53:21;98815.19;;;22.47;100.00
8320;BME280;4197;42.130;24.746;2022-08-21T07:55:50;98819.63;;;22.67;100.00
8320;BME280;4197;42.130;24.746;2022-08-21T07:58:19;98827.75;;;22.70;100.00
8320;BME280;4197;42.130;24.746;2022-08-21T08:00:47;98827.09;;;22.66;100.00
8320;BME280;4197;42.130;24.746;2022-08-21T08:03:16;98835.22;;;22.61;100.00
8320;BME280;4197;42.130;24.746;2022-08-21T08:05:55;98825.41;;;22.38;100.00
8320;BME280;4197;42.130;24.746;2022-08-21T08:08:23;98823.56;;;22.22;100.00
8320;BME280;4197;42.130;24.746;2022-08-21T08:10:51;98815.81;;;22.30;100.00
8320;BME280;4197;42.130;24.746;2022-08-21T08:13:22;98821.53;;;22.35;100.00
8320;BME280;4197;42.130;24.746;2022-08-21T08:15:50;98820.91;;;22.31;100.00
8320;BME280;4197;42.130;24.746;2022-08-21T08:18:19;98818.00;;;22.35;100.00
8320;BME280;4197;42.130;24.746;2022-08-21T08:20:47;98807.84;;;22.32;100.00
8320;BME280;4197;42.130;24.746;2022-08-21T08:23:16;98809.91;;;22.40;100.00
8320;BME280;4197;42.130;24.746;2022-08-21T08:25:44;98816.06;;;22.44;100.00
8320;BME280;4197;42.130;24.746;2022-08-21T08:28:12;98812.72;;;22.49;100.00
8320;BME280;4197;42.130;24.746;2022-08-21T08:30:45;98820.00;;;22.34;100.00
8320;BME280;4197;42.130;24.746;2022-08-21T08:33:14;98816.06;;;22.22;100.00
8320;BME280;4197;42.130;24.746;2022-08-21T08:35:46;98807.16;;;22.40;100.00
8320;BME280;4197;42.130;24.746;2022-08-21T08:38:15;98804.91;;;22.48;100.00
8320;BME280;4197;42.130;24.746;2022-08-21T08:40:51;98800.34;;;22.54;100.00
8320;BME280;4197;42.130;24.746;2022-08-21T08:43:21;98799.91;;;22.34;100.00
8320;BME280;4197;42.130;24.746;2022-08-21T08:45:52;98806.97;;;22.35;100.00
8320;BME280;4197;42.130;24.746;2022-08-21T08:48:34;98789.47;;;22.38;100.00
8320;BME280;4197;42.130;24.746;2022-08-21T08:51:06;98793.19;;;22.44;100.00
8320;BME280;4197;42.130;24.746;2022-08-21T08:53:47;98791.66;;;22.43;100.00
8320;BME280;4197;42.130;24.746;2022-08-21T08:56:21;98780.16;;;22.44;100.00
8320;BME280;4197;42.130;24.746;2022-08-21T08:58:56;98785.19;;;22.59;100.00
8320;BME280;4197;42.130;24.746;2022-08-21T09:01:29;98792.03;;;22.54;100.00
8320;BME280;4197;42.130;24.746;2022-08-21T09:04:03;98784.66;;;22.51;100.00
8320;BME280;4197;42.130;24.746;2022-08-21T09:06:40;98783.75;;;22.54;100.00
8320;BME280;4197;42.130;24.746;2022-08-21T09:09:22;98788.41;;;22.66;100.00
8320;BME280;4197;42.130;24.746;2022-08-21T09:11:58;98790.66;;;22.81;100.00
8320;BME280;4197;42.130;24.746;2022-08-21T09:14:41;98786.16;;;22.96;100.00
8320;BME280;4197;42.130;24.746;2022-08-21T09:17:22;98783.75;;;23.07;100.00
8320;BME280;4197;42.130;24.746;2022-08-21T09:20:09;98781.91;;;23.13;100.00
8320;BME280;4197;42.130;24.746;2022-08-21T09:22:51;98778.41;;;23.22;100.00
8320;BME280;4197;42.130;24.746;2022-08-21T09:25:25;98769.22;;;23.25;100.00
8320;BME280;4197;42.130;24.746;2022-08-21T09:27:54;98769.84;;;23.29;100.00
8320;BME280;4197;42.130;24.746;2022-08-21T09:30:26;98771.41;;;23.40;100.00
8320;BME280;4197;42.130;24.746;2022-08-21T09:32:57;98765.44;;;23.50;100.00
8320;BME280;4197;42.130;24.746;2022-08-21T09:35:26;98757.47;;;23.62;100.00
8320;BME280;4197;42.130;24.746;2022-08-21T09:37:56;98755.13;;;23.51;100.00
8320;BME280;4197;42.130;24.746;2022-08-21T09:40:35;98748.03;;;23.31;100.00
8320;BME280;4197;42.130;24.746;2022-08-21T09:43:06;98750.97;;;23.37;100.00
8320;BME280;4197;42.130;24.746;2022-08-21T09:45:35;98748.34;;;23.43;100.00
8320;BME280;4197;42.130;24.746;2022-08-21T09:48:14;98754.59;;;23.25;100.00
8320;BME280;4197;42.130;24.746;2022-08-21T09:50:43;98748.72;;;23.04;100.00
8320;BME280;4197;42.130;24.746;2022-08-21T09:53:17;98752.47;;;23.20;100.00
8320;BME280;4197;42.130;24.746;2022-08-21T09:55:52;98750.84;;;23.59;100.00
8320;BME280;4197;42.130;24.746;2022-08-21T09:58:41;98753.28;;;23.66;100.00
8320;BME280;4197;42.130;24.746;2022-08-21T10:01:16;98761.66;;;23.75;100.00
8320;BME280;4197;42.130;24.746;2022-08-21T10:03:49;98771.50;;;24.13;100.00
8320;BME280;4197;42.130;24.746;2022-08-21T10:06:29;98773.94;;;24.30;100.00
8320;BME280;4197;42.130;24.746;2022-08-21T10:09:04;98766.25;;;24.15;100.00
8320;BME280;4197;42.130;24.746;2022-08-21T10:11:33;98778.56;;;24.23;100.00
8320;BME280;4197;42.130;24.746;2022-08-21T10:14:11;98771.94;;;24.39;100.00
8320;BME280;4197;42.130;24.746;2022-08-21T10:16:49;98771.47;;;24.32;100.00
8320;BME280;4197;42.130;24.746;2022-08-21T10:19:28;98766.13;;;24.10;100.00
8320;BME280;4197;42.130;24.746;2022-08-21T10:22:03;98758.56;;;23.82;100.00
8320;BME280;4197;42.130;24.746;2022-08-21T10:24:37;98759.28;;;23.55;100.00
8320;BME280;4197;42.130;24.746;2022-08-21T10:27:15;98756.50;;;23.37;100.00
8320;BME280;4197;42.130;24.746;2022-08-21T10:29:50;98759.38;;;23.24;100.00
8320;BME280;4197;42.130;24.746;2022-08-21T10:32:31;98764.41;;;23.16;100.00
8320;BME280;4197;42.130;24.746;2022-08-21T10:35:10;98760.84;;;23.07;100.00
8320;BME280;4197;42.130;24.746;2022-08-21T10:37:56;98769.88;;;22.98;100.00
8320;BME280;4197;42.130;24.746;2022-08-21T10:40:31;98766.44;;;22.94;100.00
8320;BME280;4197;42.130;24.746;2022-08-21T10:43:12;98764.75;;;22.87;100.00
8320;BME280;4197;42.130;24.746;2022-08-21T10:45:52;98767.31;;;22.82;100.00
8320;BME280;4197;42.130;24.746;2022-08-21T10:48:28;98770.06;;;22.73;100.00
8320;BME280;4197;42.130;24.746;2022-08-21T10:51:05;98774.31;;;22.64;100.00
8320;BME280;4197;42.130;24.746;2022-08-21T10:53:45;98767.88;;;22.67;100.00
8320;BME280;4197;42.130;24.746;2022-08-21T10:56:19;98774.50;;;22.70;100.00
8320;BME280;4197;42.130;24.746;2022-08-21T11:01:54;98765.88;;;22.68;100.00
8320;BME280;4197;42.130;24.746;2022-08-21T11:04:30;98769.91;;;22.76;100.00
8320;BME280;4197;42.130;24.746;2022-08-21T11:07:21;98768.84;;;22.83;100.00
8320;BME280;4197;42.130;24.746;2022-08-21T11:10:03;98778.34;;;23.04;100.00
8320;BME280;4197;42.130;24.746;2022-08-21T11:12:40;98764.38;;;23.07;100.00
8320;BME280;4197;42.130;24.746;2022-08-21T11:15:24;98764.56;;;23.13;100.00
8320;BME280;4197;42.130;24.746;2022-08-21T11:18:04;98765.22;;;23.35;100.00
8320;BME280;4197;42.130;24.746;2022-08-21T11:20:41;98764.47;;;23.26;100.00
8320;BME280;4197;42.130;24.746;2022-08-21T11:23:17;98759.78;;;23.13;100.00
8320;BME280;4197;42.130;24.746;2022-08-21T11:25:50;98763.88;;;23.40;100.00
8320;BME280;4197;42.130;24.746;2022-08-21T11:28:25;98760.50;;;23.45;100.00
8320;BME280;4197;42.130;24.746;2022-08-21T11:31:04;98755.47;;;23.71;100.00
8320;BME280;4197;42.130;24.746;2022-08-21T11:33:45;98765.50;;;23.87;100.00
8320;BME280;4197;42.130;24.746;2022-08-21T11:36:20;98756.72;;;24.07;100.00
8320;BME280;4197;42.130;24.746;2022-08-21T11:38:57;98767.94;;;24.22;100.00
8320;BME280;4197;42.130;24.746;2022-08-21T11:41:30;98761.97;;;24.14;100.00
8320;BME280;4197;42.130;24.746;2022-08-21T11:44:07;98762.56;;;24.18;100.00
8320;BME280;4197;42.130;24.746;2022-08-21T11:46:44;98761.91;;;24.33;100.00
8320;BME280;4197;42.130;24.746;2022-08-21T11:49:27;98742.69;;;24.29;100.00
8320;BME280;4197;42.130;24.746;2022-08-21T11:52:08;98752.25;;;24.28;100.00
8320;BME280;4197;42.130;24.746;2022-08-21T11:54:46;98747.63;;;24.43;100.00
8320;BME280;4197;42.130;24.746;2022-08-21T11:57:21;98746.06;;;24.42;100.00
8320;BME280;4197;42.130;24.746;2022-08-21T11:59:58;98745.91;;;24.37;100.00
8320;BME280;4197;42.130;24.746;2022-08-21T12:02:31;98739.78;;;24.23;100.00
8320;BME280;4197;42.130;24.746;2022-08-21T12:05:05;98739.78;;;24.05;100.00
8320;BME280;4197;42.130;24.746;2022-08-21T12:07:38;98736.72;;;23.94;100.00
8320;BME280;4197;42.130;24.746;2022-08-21T12:10:12;98737.94;;;24.02;100.00
8320;BME280;4197;42.130;24.746;2022-08-21T12:12:43;98724.56;;;23.91;100.00
8320;BME280;4197;42.130;24.746;2022-08-21T12:15:26;98724.28;;;23.71;100.00
8320;BME280;4197;42.130;24.746;2022-08-21T12:18:00;98727.63;;;23.66;100.00
8320;BME280;4197;42.130;24.746;2022-08-21T12:20:42;98724.53;;;23.54;100.00
8320;BME280;4197;42.130;24.746;2022-08-21T12:23:24;98712.84;;;23.41;100.00
8320;BME280;4197;42.130;24.746;2022-08-21T12:26:24;98712.22;;;23.55;100.00
8320;BME280;4197;42.130;24.746;2022-08-21T12:29:04;98709.34;;;23.59;100.00
8320;BME280;4197;42.130;24.746;2022-08-21T12:31:33;98710.41;;;23.62;100.00
8320;BME280;4197;42.130;24.746;2022-08-21T12:34:05;98717.38;;;23.75;100.00
8320;BME280;4197;42.130;24.746;2022-08-21T12:36:43;98709.06;;;23.85;100.00
8320;BME280;4197;42.130;24.746;2022-08-21T12:39:14;98701.03;;;23.77;100.00
8320;BME280;4197;42.130;24.746;2022-08-21T12:41:49;98707.22;;;23.81;100.00
8320;BME280;4197;42.130;24.746;2022-08-21T12:44:23;98710.59;;;23.95;100.00
8320;BME280;4197;42.130;24.746;2022-08-21T12:46:57;98707.03;;;23.94;100.00
8320;BME280;4197;42.130;24.746;2022-08-21T12:49:31;98700.28;;;23.86;100.00
8320;BME280;4197;42.130;24.746;2022-08-21T12:52:03;98692.44;;;23.85;100.00
8320;BME280;4197;42.130;24.746;2022-08-21T12:54:38;98689.38;;;23.92;100.00
8320;BME280;4197;42.130;24.746;2022-08-21T12:57:18;98678.56;;;23.94;100.00
8320;BME280;4197;42.130;24.746;2022-08-21T12:59:52;98681.50;;;23.99;100.00
8320;BME280;4197;42.130;24.746;2022-08-21T13:02:23;98678.69;;;24.18;100.00
8320;BME280;4197;42.130;24.746;2022-08-21T13:04:52;98670.66;;;24.29;100.00
8320;BME280;4197;42.130;24.746;2022-08-21T13:07:28;98675.25;;;24.51;100.00
8320;BME280;4197;42.130;24.746;2022-08-21T13:09:59;98676.22;;;24.71;100.00
8320;BME280;4197;42.130;24.746;2022-08-21T13:12:29;98681.63;;;24.75;100.00
8320;BME280;4197;42.130;24.746;2022-08-21T13:15:03;98686.72;;;25.01;100.00
8320;BME280;4197;42.130;24.746;2022-08-21T13:17:38;98683.78;;;25.04;100.00
8320;BME280;4197;42.130;24.746;2022-08-21T13:20:09;98680.22;;;25.04;100.00
8320;BME280;4197;42.130;24.746;2022-08-21T13:22:41;98679.03;;;24.96;100.00
8320;BME280;4197;42.130;24.746;2022-08-21T13:25:11;98676.22;;;25.05;100.00
8320;BME280;4197;42.130;24.746;2022-08-21T13:27:42;98679.91;;;25.11;100.00